ePrivacy and GPDR Cookie Consent by Cookie Consent
EmailTwitter


Surface observations / Canada / CYYZ (71624)

Regions: Quebec | Canada | USA | Europe | France | UK | Elsewhere
Station
Display
Info & Location for CYYZ (71624) | Help decoding METAR

Weather Conditions observed on 2021/05/08 at 05:07 UTC at TORONTO A, ON (CYYZ)

Sky conditions: few clouds.

Temperature: 2.0 Celsius.

Dewpoint: 0.0 Celsius.

Relative Humidity: 87%

Winds: Variable at 9 km/h or 5 knots.

Mean Sea level Pressure: 101.26 kilopascals.

Altimeter Setting (QNH): 101.18 kilopascals or 29.88 inches of mercury.

Horizontal visibility: 15.00 statute miles or 24.00 kilometers.

Coded METAR:

CYYZ 080507Z VRB05KT 15SM FEW150 02/00 A2988 RMK AC1 SLP126=